Terminal Aerodrome Forecast
Issued by NWS

Home | Current Version | Previous Version | Text Only | Print | Product List | Glossary On
Versions: 1 2 3 4 5 6 7 8 9 10 11 12
394
FTUS42 KMHX 281138
TAFISO
TAF
KISO 281138Z 2812/0112 VRB06KT P6SM SCT250
     FM281700 20009KT P6SM SCT050 BKN250
     FM010800 20009KT P6SM BKN010
      AMD LTD TO CLD VIS AND WIND=

USA.gov is the U.S. government's official web portal to all federal, state and local government web resources and services.